createdAt,value
2023-05-20T00:02:12.513Z,6.80
2023-05-20T00:05:01.071Z,6.67
2023-05-20T00:07:50.983Z,7.20
2023-05-20T00:10:39.589Z,7.30
2023-05-20T00:13:28.196Z,7.00
2023-05-20T00:16:16.724Z,7.10
2023-05-20T00:19:05.606Z,8.00
2023-05-20T00:21:54.172Z,7.37
2023-05-20T00:24:44.023Z,6.97
2023-05-20T00:27:32.546Z,7.90
2023-05-20T00:30:21.751Z,7.27
2023-05-20T00:33:10.540Z,7.40
2023-05-20T00:35:59.164Z,7.67
2023-05-20T00:38:47.621Z,6.70
2023-05-20T00:41:37.551Z,7.20
2023-05-20T00:44:26.742Z,7.30
2023-05-20T00:47:15.348Z,6.73
2023-05-20T00:50:04.380Z,6.80
2023-05-20T00:52:55.318Z,7.57
2023-05-20T00:55:43.817Z,6.13
2023-05-20T00:58:33.733Z,6.10
2023-05-20T01:01:22.293Z,6.27
2023-05-20T01:04:10.975Z,7.30
2023-05-20T01:07:01.015Z,6.77
2023-05-20T01:09:49.597Z,6.80
2023-05-20T01:12:40.432Z,7.10
2023-05-20T01:15:30.988Z,6.50
2023-05-20T01:18:20.545Z,6.67
2023-05-20T01:21:12.498Z,7.23
2023-05-20T01:24:04.085Z,6.93
2023-05-20T01:26:52.611Z,6.60
2023-05-20T01:29:42.035Z,6.83
2023-05-20T01:32:34.065Z,6.77
2023-05-20T01:35:23.717Z,6.37
2023-05-20T01:38:12.536Z,6.20
2023-05-20T01:41:04.529Z,6.70
2023-05-20T01:43:53.069Z,6.57
2023-05-20T01:46:41.727Z,6.47
2023-05-20T01:49:30.320Z,5.90
2023-05-20T01:52:18.819Z,6.63
2023-05-20T01:55:07.897Z,6.40
2023-05-20T01:57:57.789Z,6.30
2023-05-20T02:00:46.661Z,6.00
2023-05-20T02:03:35.239Z,6.70
2023-05-20T02:06:23.716Z,6.40
2023-05-20T02:09:12.271Z,5.93
2023-05-20T02:12:00.815Z,6.33
2023-05-20T02:14:51.199Z,7.00
2023-05-20T02:17:40.455Z,6.10
2023-05-20T02:20:29.119Z,7.00
2023-05-20T02:23:17.736Z,5.70
2023-05-20T02:26:06.576Z,6.87
2023-05-20T02:28:55.090Z,5.70
2023-05-20T02:31:44.999Z,5.90
2023-05-20T02:34:33.550Z,5.80
2023-05-20T02:37:22.124Z,5.97
2023-05-20T02:40:12.002Z,5.70
2023-05-20T02:43:01.446Z,5.97
2023-05-20T02:45:50.241Z,6.90
2023-05-20T02:48:40.176Z,5.33
2023-05-20T02:51:28.762Z,5.73
2023-05-20T02:54:17.585Z,5.77
2023-05-20T02:57:06.460Z,6.07
2023-05-20T02:59:55.738Z,5.90
2023-05-20T03:02:44.267Z,5.90
2023-05-20T03:05:37.640Z,5.27
2023-05-20T03:08:26.959Z,4.93
2023-05-20T03:11:16.049Z,5.47
2023-05-20T03:14:04.595Z,5.53
2023-05-20T03:16:55.416Z,5.57
2023-05-20T03:19:43.956Z,5.50
2023-05-20T03:22:33.890Z,5.93
2023-05-20T03:25:23.847Z,5.73
2023-05-20T03:28:12.827Z,5.00
2023-05-20T03:31:02.528Z,5.07
2023-05-20T03:33:51.185Z,5.90
2023-05-20T03:36:40.102Z,5.67
2023-05-20T03:39:29.915Z,5.63
2023-05-20T03:42:18.395Z,5.90
2023-05-20T03:45:07.775Z,5.60
2023-05-20T03:47:56.712Z,5.60
2023-05-20T03:50:45.225Z,5.70
2023-05-20T03:53:33.745Z,5.27
2023-05-20T03:56:23.679Z,5.03
2023-05-20T03:59:12.158Z,4.80
2023-05-20T04:02:00.681Z,5.87
2023-05-20T04:04:52.880Z,5.80
2023-05-20T04:07:41.526Z,5.83
2023-05-20T04:10:32.010Z,5.50
2023-05-20T04:13:21.933Z,5.63
2023-05-20T04:16:10.505Z,6.67
2023-05-20T04:19:01.017Z,5.27
2023-05-20T04:21:49.621Z,5.97
2023-05-20T04:24:38.190Z,5.53
2023-05-20T04:27:27.022Z,5.10
2023-05-20T04:30:18.002Z,5.90
2023-05-20T04:33:06.605Z,5.80
2023-05-20T04:35:58.620Z,5.50
2023-05-20T04:38:48.253Z,5.50
2023-05-20T04:41:37.387Z,4.97
2023-05-20T04:44:26.543Z,5.70
2023-05-20T04:47:16.659Z,5.53
2023-05-20T04:50:06.164Z,5.27
2023-05-20T04:52:55.573Z,5.10
2023-05-20T04:55:44.581Z,5.77
2023-05-20T04:58:33.335Z,4.90
2023-05-20T05:01:21.842Z,4.80
2023-05-20T05:04:11.757Z,5.30
2023-05-20T05:07:00.316Z,4.77
2023-05-20T05:09:48.814Z,4.77
2023-05-20T05:12:37.316Z,4.90
2023-05-20T05:15:25.849Z,5.30
2023-05-20T05:18:18.414Z,5.70
2023-05-20T05:21:08.290Z,4.90
2023-05-20T05:23:58.305Z,5.63
2023-05-20T05:26:47.057Z,4.83
2023-05-20T05:29:35.548Z,5.60
2023-05-20T05:32:24.074Z,5.40
2023-05-20T05:35:12.815Z,4.80
2023-05-20T05:38:03.116Z,5.13
2023-05-20T05:40:51.793Z,4.70
2023-05-20T05:43:40.402Z,5.40
2023-05-20T05:46:28.961Z,5.33
2023-05-20T05:49:17.538Z,4.80
2023-05-20T05:52:06.877Z,5.47
2023-05-20T05:54:56.704Z,4.50
2023-05-20T05:57:45.343Z,5.10
2023-05-20T06:00:33.935Z,5.30
2023-05-20T06:03:22.534Z,5.90
2023-05-20T06:06:11.234Z,4.40
2023-05-20T06:08:59.952Z,5.20
2023-05-20T06:11:49.897Z,4.90
2023-05-20T06:14:38.465Z,4.50
2023-05-20T06:17:27.016Z,5.43
2023-05-20T06:20:15.843Z,5.07
2023-05-20T06:23:04.395Z,5.70
2023-05-20T06:25:53.041Z,5.40
2023-05-20T06:28:42.927Z,4.50
2023-05-20T06:31:31.484Z,4.80
2023-05-20T06:34:20.116Z,6.57
2023-05-20T06:37:08.663Z,6.43
2023-05-20T06:39:57.240Z,6.70
2023-05-20T06:42:45.804Z,7.03
2023-05-20T06:45:35.874Z,8.07
2023-05-20T06:48:24.465Z,5.93
2023-05-20T06:51:12.961Z,7.10
2023-05-20T06:54:01.530Z,6.50
2023-05-20T06:56:50.050Z,7.00
2023-05-20T06:59:38.887Z,6.50
2023-05-20T07:02:28.888Z,6.23
2023-05-20T07:05:17.718Z,7.50
2023-05-20T07:08:06.837Z,7.07
2023-05-20T07:10:56.716Z,6.23
2023-05-20T07:13:45.192Z,6.70
2023-05-20T07:16:35.281Z,6.67
2023-05-20T07:19:25.346Z,6.53
2023-05-20T07:22:13.900Z,6.43
2023-05-20T07:25:02.440Z,6.77
2023-05-20T07:27:51.066Z,6.80
2023-05-20T07:30:39.646Z,6.73
2023-05-20T07:33:29.622Z,6.10
2023-05-20T07:36:19.593Z,6.90
2023-05-20T07:39:12.527Z,7.40
2023-05-20T07:42:03.532Z,6.97
2023-05-20T07:44:52.075Z,6.43
2023-05-20T07:47:40.772Z,6.83
2023-05-20T07:50:29.612Z,6.57
2023-05-20T07:53:19.992Z,6.80
2023-05-20T07:56:08.760Z,7.10
2023-05-20T07:58:59.211Z,7.00
2023-05-20T08:01:47.807Z,7.10
2023-05-20T08:04:36.988Z,6.87
2023-05-20T08:07:25.606Z,7.43
2023-05-20T08:10:15.768Z,8.20
2023-05-20T08:13:04.448Z,6.97
2023-05-20T08:15:54.731Z,7.83
2023-05-20T08:18:43.596Z,7.53
2023-05-20T08:21:32.323Z,7.27
2023-05-20T08:24:20.933Z,7.80
2023-05-20T08:27:10.827Z,7.60
2023-05-20T08:30:00.923Z,7.03
2023-05-20T08:32:49.749Z,6.80
2023-05-20T08:35:39.588Z,7.40
2023-05-20T08:38:28.331Z,7.43
2023-05-20T08:41:16.984Z,7.40
2023-05-20T08:44:07.396Z,6.83
2023-05-20T08:46:56.926Z,6.63
2023-05-20T08:49:45.533Z,6.80
2023-05-20T08:52:35.824Z,7.00
2023-05-20T08:55:27.826Z,6.90
2023-05-20T08:58:17.753Z,7.13
2023-05-20T09:01:09.457Z,7.40
2023-05-20T09:03:58.108Z,7.80
2023-05-20T09:06:47.715Z,6.87
2023-05-20T09:09:36.650Z,6.77
2023-05-20T09:12:25.201Z,7.07
2023-05-20T09:15:13.704Z,6.80
2023-05-20T09:18:04.791Z,7.27
2023-05-20T09:20:53.802Z,6.90
2023-05-20T09:23:48.321Z,6.30
2023-05-20T09:26:37.076Z,7.40
2023-05-20T09:29:25.973Z,7.07
2023-05-20T09:32:14.869Z,6.83
2023-05-20T09:35:06.234Z,6.47
2023-05-20T09:37:56.044Z,6.63
2023-05-20T09:40:45.693Z,7.00
2023-05-20T09:43:34.225Z,6.10
2023-05-20T09:46:22.927Z,6.27
2023-05-20T09:49:12.448Z,5.93
2023-05-20T09:52:03.755Z,6.17
2023-05-20T09:54:56.396Z,6.90
2023-05-20T09:57:45.098Z,6.73
2023-05-20T10:00:34.519Z,7.27
2023-05-20T10:03:24.128Z,6.10
2023-05-20T10:06:26.725Z,6.80
2023-05-20T10:09:27.444Z,6.40
2023-05-20T10:12:23.581Z,6.67
2023-05-20T10:15:17.853Z,6.30
2023-05-20T10:18:14.456Z,6.40
2023-05-20T10:21:03.040Z,6.53
2023-05-20T10:23:52.096Z,7.07
2023-05-20T10:26:42.744Z,6.27
2023-05-20T10:29:31.945Z,6.57
2023-05-20T10:32:27.790Z,7.00
2023-05-20T10:35:22.987Z,6.40
2023-05-20T10:38:12.611Z,6.10
2023-05-20T10:41:09.409Z,6.10
2023-05-20T10:44:03.395Z,6.07
2023-05-20T10:47:21.008Z,6.13
2023-05-20T10:50:27.597Z,6.37
2023-05-20T10:53:25.624Z,6.47
2023-05-20T10:56:22.598Z,6.63
2023-05-20T10:59:12.544Z,6.90
2023-05-20T11:02:01.679Z,6.47
2023-05-20T11:04:50.574Z,5.90
2023-05-20T11:07:39.085Z,6.33
2023-05-20T11:10:27.640Z,6.10
2023-05-20T11:13:16.267Z,7.20
2023-05-20T11:16:06.771Z,6.40
2023-05-20T11:18:55.841Z,6.50
2023-05-20T11:21:45.231Z,6.57
2023-05-20T11:24:33.817Z,6.27
2023-05-20T11:27:22.813Z,5.63
2023-05-20T11:30:12.677Z,5.73
2023-05-20T11:33:03.223Z,6.33
2023-05-20T11:35:53.742Z,5.57
2023-05-20T11:38:42.385Z,6.23
2023-05-20T11:41:30.951Z,6.20
2023-05-20T11:44:21.083Z,5.57
2023-05-20T11:47:09.611Z,6.17
2023-05-20T11:49:59.561Z,5.60
2023-05-20T11:52:48.218Z,6.07
2023-05-20T11:55:46.393Z,6.40
2023-05-20T11:58:35.081Z,6.77
2023-05-20T12:01:23.713Z,6.97
2023-05-20T12:04:14.808Z,6.57
2023-05-20T12:07:09.175Z,6.47
2023-05-20T12:09:57.698Z,6.80
2023-05-20T12:12:46.366Z,6.20
2023-05-20T12:15:34.947Z,6.60
2023-05-20T12:18:23.626Z,7.90
2023-05-20T12:21:12.109Z,7.10
2023-05-20T12:24:01.992Z,7.03
2023-05-20T12:26:50.815Z,5.97
2023-05-20T12:29:39.390Z,6.80
2023-05-20T12:32:27.951Z,7.67
2023-05-20T12:35:16.724Z,6.20
2023-05-20T12:38:05.455Z,7.07
2023-05-20T12:40:55.460Z,6.03
2023-05-20T12:43:43.997Z,6.87
2023-05-20T12:46:32.630Z,6.10
2023-05-20T12:49:21.191Z,6.80
2023-05-20T12:52:18.840Z,6.60
2023-05-20T12:55:13.755Z,6.70
2023-05-20T12:58:03.720Z,6.97
2023-05-20T13:00:52.217Z,5.93
2023-05-20T13:03:41.178Z,6.40
2023-05-20T13:06:29.718Z,7.20
2023-05-20T13:09:18.354Z,6.40
2023-05-20T13:12:07.553Z,6.63
2023-05-20T13:14:57.445Z,7.37
2023-05-20T13:17:46.121Z,6.73
2023-05-20T13:20:35.045Z,6.30
2023-05-20T13:23:23.750Z,6.43
2023-05-20T13:26:12.396Z,6.80
2023-05-20T13:29:00.928Z,6.67
2023-05-20T13:31:50.837Z,7.13
2023-05-20T13:34:39.577Z,6.20
2023-05-20T13:37:28.154Z,7.00
2023-05-20T13:40:17.480Z,6.47
2023-05-20T13:43:06.166Z,6.80
2023-05-20T13:45:54.688Z,7.47
2023-05-20T13:48:44.609Z,7.20
2023-05-20T13:51:33.244Z,6.47
2023-05-20T13:54:22.009Z,6.50
2023-05-20T13:57:10.603Z,6.97
2023-05-20T13:59:59.149Z,6.93
2023-05-20T14:02:47.829Z,6.67
2023-05-20T14:05:37.790Z,6.30
2023-05-20T14:08:26.550Z,6.47
2023-05-20T14:11:15.063Z,6.73
2023-05-20T14:14:03.570Z,6.53
2023-05-20T14:16:52.128Z,6.53
2023-05-20T14:19:40.757Z,8.00
2023-05-20T14:22:30.843Z,6.30
2023-05-20T14:25:19.365Z,6.40
2023-05-20T14:28:07.858Z,6.73
2023-05-20T14:30:56.336Z,6.50
2023-05-20T14:33:44.956Z,7.27
2023-05-20T14:36:33.555Z,7.37
2023-05-20T14:39:23.415Z,7.00
2023-05-20T14:42:12.649Z,6.90
2023-05-20T14:45:01.160Z,5.97
2023-05-20T14:47:49.711Z,7.23
2023-05-20T14:50:38.345Z,7.07
2023-05-20T14:53:27.093Z,6.40
2023-05-20T14:56:17.128Z,7.40
2023-05-20T14:59:05.625Z,8.10
2023-05-20T15:01:54.152Z,6.70
2023-05-20T15:04:45.086Z,7.30
2023-05-20T15:07:33.583Z,7.87
2023-05-20T15:10:22.206Z,6.50
2023-05-20T15:13:12.118Z,7.07
2023-05-20T15:16:00.921Z,7.23
2023-05-20T15:18:49.457Z,7.00
2023-05-20T15:21:37.989Z,6.90
2023-05-20T15:24:26.616Z,6.70
2023-05-20T15:27:15.098Z,6.80
2023-05-20T15:30:05.807Z,7.00
2023-05-20T15:32:54.437Z,7.37
2023-05-20T15:35:43.025Z,7.13
2023-05-20T15:38:31.600Z,7.00
2023-05-20T15:41:21.722Z,7.83
2023-05-20T15:44:10.676Z,7.83
2023-05-20T15:47:00.517Z,7.20
2023-05-20T15:49:49.099Z,7.17
2023-05-20T15:52:37.774Z,7.53
2023-05-20T15:55:26.658Z,7.53
2023-05-20T15:58:15.167Z,7.10
2023-05-20T16:01:03.786Z,6.57
2023-05-20T16:03:56.848Z,7.73
2023-05-20T16:06:46.750Z,7.27
2023-05-20T16:09:35.423Z,7.40
2023-05-20T16:12:24.352Z,7.50
2023-05-20T16:15:13.124Z,8.57
2023-05-20T16:18:01.738Z,7.77
2023-05-20T16:20:51.748Z,6.93
2023-05-20T16:23:40.536Z,7.60
2023-05-20T16:26:31.371Z,7.40
2023-05-20T16:29:19.915Z,7.47
2023-05-20T16:32:08.801Z,7.10
2023-05-20T16:34:58.006Z,8.00
2023-05-20T16:37:50.706Z,7.90
2023-05-20T16:40:39.643Z,7.80
2023-05-20T16:43:28.175Z,8.00
2023-05-20T16:46:16.720Z,7.53
2023-05-20T16:49:05.507Z,7.90
2023-05-20T16:51:54.136Z,8.47
2023-05-20T16:54:44.069Z,7.83
2023-05-20T16:57:32.663Z,7.40
2023-05-20T17:00:21.250Z,7.13
2023-05-20T17:03:09.875Z,8.30
2023-05-20T17:05:58.449Z,6.70
2023-05-20T17:08:47.004Z,8.20
2023-05-20T17:11:36.900Z,7.30
2023-05-20T17:14:25.423Z,7.80
2023-05-20T17:17:14.931Z,7.20
2023-05-20T17:20:05.362Z,7.70
2023-05-20T17:22:53.919Z,7.87
2023-05-20T17:25:42.575Z,8.30
2023-05-20T17:28:32.436Z,8.63
2023-05-20T17:31:21.781Z,7.33
2023-05-20T17:34:10.494Z,7.93
2023-05-20T17:36:59.025Z,7.87
2023-05-20T17:39:47.574Z,7.93
2023-05-20T17:42:36.119Z,7.73
2023-05-20T17:45:26.042Z,8.03
2023-05-20T17:48:14.819Z,8.10
2023-05-20T17:51:03.422Z,7.43
2023-05-20T17:53:51.988Z,8.23
2023-05-20T17:56:40.697Z,7.77
2023-05-20T17:59:29.224Z,7.93
2023-05-20T18:02:19.266Z,8.40
2023-05-20T18:05:09.900Z,8.60
2023-05-20T18:07:58.452Z,8.93
2023-05-20T18:10:47.005Z,9.20
2023-05-20T18:13:35.527Z,8.90
2023-05-20T18:16:24.125Z,8.57
2023-05-20T18:19:15.099Z,9.20
2023-05-20T18:22:03.742Z,8.10
2023-05-20T18:24:52.246Z,8.87
2023-05-20T18:27:41.113Z,9.20
2023-05-20T18:30:29.705Z,10.57
2023-05-20T18:33:18.592Z,10.00
2023-05-20T18:36:08.961Z,10.10
2023-05-20T18:38:57.695Z,9.10
2023-05-20T18:41:47.492Z,9.80
2023-05-20T18:44:36.164Z,10.73
2023-05-20T18:47:24.761Z,9.90
2023-05-20T18:50:13.328Z,10.50
2023-05-20T18:53:03.219Z,10.30
2023-05-20T18:55:52.506Z,11.03
2023-05-20T18:58:41.070Z,10.87
2023-05-20T19:01:29.846Z,9.20
2023-05-20T19:04:18.392Z,11.20
2023-05-20T19:07:07.198Z,10.47
2023-05-20T19:09:57.109Z,10.93
2023-05-20T19:12:45.681Z,11.40
2023-05-20T19:15:34.392Z,10.90
2023-05-20T19:18:23.134Z,10.73
2023-05-20T19:21:11.662Z,11.90
2023-05-20T19:24:00.208Z,10.83
2023-05-20T19:26:50.080Z,11.90
2023-05-20T19:29:38.676Z,10.67
2023-05-20T19:32:27.248Z,13.03
2023-05-20T19:35:18.091Z,12.50
2023-05-20T19:38:06.849Z,12.17
2023-05-20T19:40:55.422Z,12.00
2023-05-20T19:43:45.552Z,12.50
2023-05-20T19:46:34.398Z,12.00
2023-05-20T19:49:24.733Z,12.20
2023-05-20T19:52:13.323Z,11.17
2023-05-20T19:55:02.050Z,12.33
2023-05-20T19:57:53.366Z,11.87
2023-05-20T20:00:43.257Z,12.97
2023-05-20T20:03:33.984Z,13.00
2023-05-20T20:06:22.583Z,13.10
2023-05-20T20:09:11.373Z,12.37
2023-05-20T20:11:59.902Z,12.90
2023-05-20T20:14:48.494Z,13.47
2023-05-20T20:17:45.921Z,13.53
2023-05-20T20:20:39.714Z,13.60
2023-05-20T20:23:28.444Z,13.40
2023-05-20T20:26:16.983Z,13.23
2023-05-20T20:29:05.599Z,12.63
2023-05-20T20:31:55.536Z,14.20
2023-05-20T20:34:45.842Z,13.50
2023-05-20T20:37:35.485Z,14.23
2023-05-20T20:40:25.547Z,14.33
2023-05-20T20:43:20.613Z,13.20
2023-05-20T20:46:11.349Z,14.20
2023-05-20T20:48:59.920Z,14.67
2023-05-20T20:51:50.982Z,13.77
2023-05-20T20:54:42.703Z,13.40
2023-05-20T20:57:31.996Z,13.67
2023-05-20T21:00:23.299Z,13.53
2023-05-20T21:03:12.008Z,14.77
2023-05-20T21:06:01.373Z,14.77
2023-05-20T21:08:53.131Z,13.90
2023-05-20T21:11:43.044Z,13.93
2023-05-20T21:14:31.587Z,14.93
2023-05-20T21:17:20.140Z,15.40
2023-05-20T21:20:09.725Z,14.77
2023-05-20T21:22:58.257Z,14.60
2023-05-20T21:25:48.404Z,13.90
2023-05-20T21:28:36.925Z,14.80
2023-05-20T21:31:25.524Z,14.20
2023-05-20T21:34:14.154Z,15.17
2023-05-20T21:37:02.685Z,14.53
2023-05-20T21:39:51.282Z,14.07
2023-05-20T21:42:41.189Z,14.40
2023-05-20T21:45:29.766Z,14.07
2023-05-20T21:48:18.292Z,13.93
2023-05-20T21:51:06.950Z,14.80
2023-05-20T21:53:55.475Z,13.93
2023-05-20T21:56:44.110Z,15.20
2023-05-20T21:59:33.991Z,15.30
2023-05-20T22:02:22.926Z,15.03
2023-05-20T22:05:12.829Z,16.00
2023-05-20T22:08:01.921Z,13.27
2023-05-20T22:10:50.555Z,15.30
2023-05-20T22:13:41.583Z,15.13
2023-05-20T22:16:31.544Z,14.50
2023-05-20T22:19:21.732Z,15.40
2023-05-20T22:22:10.650Z,14.93
2023-05-20T22:24:59.271Z,14.97
2023-05-20T22:27:48.218Z,16.00
2023-05-20T22:30:38.283Z,17.70
2023-05-20T22:33:28.222Z,17.50
2023-05-20T22:36:16.827Z,16.30
2023-05-20T22:39:06.926Z,17.57
2023-05-20T22:41:55.553Z,16.67
2023-05-20T22:44:44.058Z,15.93
2023-05-20T22:47:32.633Z,16.13
2023-05-20T22:50:23.929Z,16.57
2023-05-20T22:53:12.879Z,16.50
2023-05-20T22:56:01.456Z,17.13
2023-05-20T22:58:49.962Z,17.93
2023-05-20T23:01:38.892Z,17.27
2023-05-20T23:04:27.536Z,18.00
2023-05-20T23:07:19.280Z,17.17
2023-05-20T23:10:08.603Z,15.70
2023-05-20T23:12:57.225Z,16.13
2023-05-20T23:15:48.080Z,16.30
2023-05-20T23:18:36.658Z,17.17
2023-05-20T23:21:25.392Z,17.50
2023-05-20T23:24:16.931Z,18.07
2023-05-20T23:27:06.188Z,17.83
2023-05-20T23:29:54.890Z,16.80
2023-05-20T23:32:43.596Z,17.17
2023-05-20T23:35:32.177Z,17.77
2023-05-20T23:38:21.074Z,15.37
2023-05-20T23:41:10.996Z,17.23
2023-05-20T23:43:59.578Z,17.50
2023-05-20T23:46:49.418Z,17.60
2023-05-20T23:49:37.975Z,17.33
2023-05-20T23:52:26.939Z,16.77
2023-05-20T23:55:15.706Z,17.00
2023-05-20T23:58:05.631Z,17.30
